Time;durP1;ratioP1;P1;durP2;ratioP2;P2;SDS_P1;SDS_P2;PMS_P1;PMS_P2;Temp;Humidity;BMP_temperature;BMP_pressure;BME280_temperature;BME280_humidity;BME280_pressure;Samples;Min_cycle;Max_cycle;Signal;HPM_P1;HPM_P2
2023/01/02 08:01:16;;;;;;;2.27;2.00;;;7.80;99.90;;;;;;5140909;27;20268;-82
2023/01/02 08:03:42;;;;;;;4.73;2.10;;;;;;;;;;5139906;28;20197;-82
2023/01/02 08:06:10;;;;;;;2.13;1.47;;;7.80;99.90;;;;;;5121593;28;20216;-82
2023/01/02 08:08:36;;;;;;;2.63;2.00;;;7.80;99.90;;;;;;5139953;28;20163;-80
2023/01/02 08:11:04;;;;;;;4.10;2.53;;;7.80;99.90;;;;;;5139290;28;20250;-80
2023/01/02 08:13:29;;;;;;;12.93;5.27;;;7.90;99.90;;;;;;5138255;28;20658;-80
2023/01/02 08:15:55;;;;;;;13.17;5.27;;;8.00;99.90;;;;;;5139818;27;20202;-79
2023/01/02 08:18:21;;;;;;;6.50;3.63;;;;;;;;;;5136633;27;20640;-79
2023/01/02 08:20:47;;;;;;;8.37;3.87;;;8.20;99.90;;;;;;5134023;28;20298;-80
2023/01/02 08:23:13;;;;;;;4.67;2.10;;;8.40;99.90;;;;;;5135426;27;20589;-80
2023/01/02 08:25:38;;;;;;;3.53;2.03;;;8.80;99.90;;;;;;5135066;28;20529;-80
2023/01/02 08:28:04;;;;;;;3.27;1.70;;;9.20;99.90;;;;;;5134494;28;20167;-80
2023/01/02 08:30:30;;;;;;;2.30;1.67;;;9.70;99.90;;;;;;5135426;27;20275;-80
2023/01/02 08:32:55;;;;;;;3.50;1.80;;;10.10;99.90;;;;;;5135080;27;20175;-80
2023/01/02 08:35:21;;;;;;;3.50;2.10;;;10.60;99.90;;;;;;5135961;27;20258;-80
2023/01/02 08:37:47;;;;;;;3.27;1.60;;;11.10;99.90;;;;;;5135377;28;20304;-79
2023/01/02 08:40:13;;;;;;;7.37;2.03;;;11.60;99.90;;;;;;5132531;28;20214;-80
2023/01/02 08:42:41;;;;;;;3.67;2.63;;;12.00;99.90;;;;;;5135610;28;20255;-80
2023/01/02 08:45:07;;;;;;;3.10;2.23;;;12.50;99.90;;;;;;5138096;27;20640;-81
2023/01/02 08:47:33;;;;;;;2.63;1.70;;;12.60;99.20;;;;;;5138634;27;20175;-81
2023/01/02 08:49:59;;;;;;;3.97;1.67;;;12.60;98.00;;;;;;5136542;28;20249;-81
2023/01/02 08:52:24;;;;;;;3.70;1.50;;;12.50;97.70;;;;;;5136794;28;20166;-81
2023/01/02 08:54:50;;;;;;;72.37;40.93;;;12.80;98.80;;;;;;5138085;28;20576;-81
2023/01/02 08:57:15;;;;;;;8.17;5.60;;;13.10;97.30;;;;;;5137525;28;20329;-81
2023/01/02 08:59:41;;;;;;;8.43;3.90;;;13.20;96.80;;;;;;5137304;28;20706;-81
2023/01/02 09:02:13;;;;;;;15.53;9.33;;;13.50;96.40;;;;;;5140128;27;20178;-81
2023/01/02 09:04:38;;;;;;;10.73;6.37;;;14.00;98.30;;;;;;5139289;28;20182;-82
2023/01/02 09:07:04;;;;;;;6.63;4.40;;;14.20;93.00;;;;;;5138833;28;20260;-81
2023/01/02 09:09:30;;;;;;;65.53;42.63;;;14.50;92.10;;;;;;5137384;28;20667;-81
2023/01/02 09:11:56;;;;;;;40.83;27.67;;;14.90;92.50;;;;;;5126951;28;20187;-82
2023/01/02 09:14:22;;;;;;;8.33;4.23;;;15.30;91.60;;;;;;5122449;28;20203;-82
2023/01/02 09:16:49;;;;;;;10.53;7.87;;;15.60;91.50;;;;;;5124200;28;20211;-82
2023/01/02 09:19:14;;;;;;;4.03;1.73;;;15.90;91.80;;;;;;5122805;28;20207;-81
2023/01/02 09:21:40;;;;;;;3.87;1.73;;;16.30;85.60;;;;;;5122247;28;20184;-82
2023/01/02 09:24:06;;;;;;;3.03;2.67;;;16.50;83.70;;;;;;5123123;28;20175;-82
2023/01/02 09:26:32;;;;;;;5.57;2.90;;;16.20;81.80;;;;;;5124008;28;20167;-81
2023/01/02 09:28:57;;;;;;;6.43;3.03;;;15.70;85.00;;;;;;5121771;28;20197;-81
2023/01/02 09:31:23;;;;;;;4.47;3.20;;;15.80;90.30;;;;;;5119902;28;20258;-82
2023/01/02 09:33:51;;;;;;;4.77;3.03;;;15.80;91.10;;;;;;5118430;28;20183;-79
2023/01/02 09:36:18;;;;;;;4.90;3.33;;;15.70;84.60;;;;;;5118179;28;20206;-81
2023/01/02 09:38:50;;;;;;;4.00;2.40;;;16.00;94.10;;;;;;5117707;28;20626;-81
2023/01/02 09:41:43;;;;;;;5.23;3.10;;;16.00;90.00;;;;;;5116854;28;20572;-80
2023/01/02 09:44:14;;;;;;;4.93;3.00;;;15.80;91.60;;;;;;5117034;28;20168;-82
2023/01/02 09:46:46;;;;;;;5.37;3.27;;;15.30;91.00;;;;;;5120285;28;20177;-82
2023/01/02 09:49:17;;;;;;;5.67;3.20;;;15.10;96.10;;;;;;5121725;28;20199;-79
2023/01/02 09:51:43;;;;;;;4.20;3.00;;;14.80;96.70;;;;;;5122767;28;20241;-82
2023/01/02 09:54:23;;;;;;;4.17;3.57;;;14.40;95.50;;;;;;5120140;28;20258;-82
2023/01/02 09:57:10;;;;;;;5.40;3.30;;;14.00;95.70;;;;;;5122169;28;20630;-82
2023/01/02 09:59:47;;;;;;;11.27;4.37;;;13.70;99.00;;;;;;5121232;28;20733;-82
2023/01/02 10:02:39;;;;;;;7.53;3.83;;;13.40;99.90;;;;;;5120207;28;20259;-82
2023/01/02 10:05:33;;;;;;;8.37;4.50;;;13.10;99.90;;;;;;5120349;28;20176;-82
2023/01/02 10:08:17;;;;;;;12.27;5.50;;;13.10;99.90;;;;;;5099938;28;20174;-82
2023/01/02 10:10:49;;;;;;;9.17;4.73;;;13.20;98.10;;;;;;5113586;28;20642;-82
2023/01/02 10:13:44;;;;;;;10.20;4.10;;;13.30;99.90;;;;;;5120847;28;20266;-82
2023/01/02 10:16:18;;;;;;;9.67;3.30;;;13.50;99.90;;;;;;5110548;28;20226;-82
2023/01/02 10:18:47;;;;;;;3.83;2.70;;;13.60;99.90;;;;;;5121113;28;20175;-82
2023/01/02 10:21:23;;;;;;;4.00;2.60;;;13.60;99.90;;;;;;5122553;28;20220;-82
2023/01/02 10:24:06;;;;;;;2.70;2.30;;;13.60;99.90;;;;;;5117818;28;20216;-81
2023/01/02 10:26:40;;;;;;;3.47;2.40;;;13.50;99.90;;;;;;5119675;28;20170;-82
2023/01/02 10:29:24;;;;;;;3.27;1.90;;;13.50;99.90;;;;;;5117929;28;20282;-82
2023/01/02 10:32:18;;;;;;;6.50;2.77;;;13.40;99.90;;;;;;5117932;28;20499;-81
2023/01/02 10:35:05;;;;;;;3.57;2.70;;;13.40;99.90;;;;;;5119648;28;20158;-81
2023/01/02 10:37:31;;;;;;;4.43;2.40;;;13.40;99.90;;;;;;5118985;28;20237;-82
2023/01/02 10:39:57;;;;;;;5.73;2.17;;;13.30;99.90;;;;;;5118025;28;20225;-82
2023/01/02 10:42:23;;;;;;;6.33;3.30;;;13.40;99.90;;;;;;5119408;28;20169;-82
2023/01/02 10:44:49;;;;;;;4.37;2.60;;;13.50;99.90;;;;;;5117772;28;20200;-81
2023/01/02 10:47:27;;;;;;;9.90;4.03;;;13.80;99.90;;;;;;5116673;28;20174;-81
2023/01/02 10:49:53;;;;;;;6.20;3.97;;;14.10;99.90;;;;;;5117857;28;20217;-81
2023/01/02 10:52:47;;;;;;;6.50;4.07;;;14.20;99.90;;;;;;5116935;28;20178;-82
2023/01/02 10:55:26;;;;;;;6.70;3.77;;;14.40;96.90;;;;;;5114566;28;20247;-82
2023/01/02 10:57:52;;;;;;;7.03;3.97;;;14.80;98.60;;;;;;5116697;28;20170;-84
2023/01/02 11:00:18;;;;;;;4.50;3.33;;;15.20;99.90;;;;;;5118042;28;20211;-82
2023/01/02 11:02:50;;;;;;;5.57;3.67;;;15.40;97.10;;;;;;5117495;28;20241;-82
2023/01/02 11:05:22;;;;;;;2.00;1.50;;;15.50;94.20;;;;;;5116886;28;20691;-81
2023/01/02 11:07:50;;;;;;;3.17;2.00;;;15.50;94.00;;;;;;5116057;28;20168;-82
2023/01/02 11:10:32;;;;;;;2.93;1.93;;;15.40;93.80;;;;;;5117114;28;20200;-82
2023/01/02 11:13:12;;;;;;;3.00;1.57;;;15.20;94.30;;;;;;5117529;28;20156;-82
2023/01/02 11:15:55;;;;;;;2.60;1.70;;;15.10;95.30;;;;;;5118175;28;20624;-82
2023/01/02 11:18:27;;;;;;;1.77;1.27;;;14.90;94.60;;;;;;5115867;28;20168;-82
2023/01/02 11:21:02;;;;;;;1.83;1.30;;;14.90;95.90;;;;;;5116030;28;20290;-82
2023/01/02 11:23:38;;;;;;;6.27;1.60;;;14.90;96.80;;;;;;5100074;28;20176;-82
2023/01/02 11:26:09;;;;;;;2.57;1.03;;;14.90;97.00;;;;;;5116184;28;20184;-81
2023/01/02 11:28:39;;;;;;;1.73;1.23;;;14.90;96.40;;;;;;5115413;28;20223;-82
2023/01/02 11:31:08;;;;;;;1.63;1.40;;;14.90;95.30;;;;;;5116913;28;20168;-81
2023/01/02 11:33:36;;;;;;;4.47;2.00;;;14.80;95.60;;;;;;5117930;28;20169;-82
2023/01/02 11:36:14;;;;;;;16.07;11.37;;;14.90;95.40;;;;;;5116349;28;20206;-81
2023/01/02 11:38:49;;;;;;;6.10;3.97;;;15.10;95.60;;;;;;5116809;28;20686;-82
2023/01/02 11:44:37;;;;;;;5.63;2.00;;;15.50;96.70;;;;;;5117710;28;20712;-82
2023/01/02 11:47:06;;;;;;;3.10;1.30;;;15.70;96.00;;;;;;5116329;28;20180;-81
2023/01/02 11:49:47;;;;;;;1.77;1.20;;;15.50;94.20;;;;;;5115753;28;20201;-81
2023/01/02 11:52:25;;;;;;;3.03;2.23;;;15.50;94.70;;;;;;5116069;28;20176;-82
2023/01/02 11:55:05;;;;;;;8.17;4.60;;;15.30;94.60;;;;;;5118324;28;20246;-82
2023/01/02 11:57:53;;;;;;;19.07;11.10;;;15.20;94.40;;;;;;5116364;28;20278;-82
2023/01/02 12:00:22;;;;;;;16.10;8.93;;;15.00;94.40;;;;;;5118102;28;20214;-82
2023/01/02 12:02:51;;;;;;;17.57;6.73;;;14.90;94.40;;;;;;5116288;28;20168;-82
2023/01/02 12:05:37;;;;;;;4.03;2.67;;;14.80;94.40;;;;;;5117894;28;20712;-81
2023/01/02 12:08:50;;;;;;;24.50;12.53;;;14.70;94.10;;;;;;5116996;28;20522;-81
2023/01/02 12:11:47;;;;;;;87.20;43.27;;;14.90;93.80;;;;;;5116766;28;20157;-80
2023/01/02 12:14:23;;;;;;;3.73;2.20;;;15.10;93.70;;;;;;5116472;28;20166;-81
2023/01/02 12:16:48;;;;;;;3.37;2.90;;;15.20;93.10;;;;;;5115735;28;20174;-82
2023/01/02 12:19:17;;;;;;;3.73;2.00;;;15.20;93.10;;;;;;5116025;28;20207;-82
2023/01/02 12:22:30;;;;;;;3.83;2.57;;;15.20;92.60;;;;;;5114783;28;20172;-81
2023/01/02 12:25:33;;;;;;;7.30;2.30;;;15.20;93.00;;;;;;5078205;28;20204;-81
2023/01/02 12:28:20;;;;;;;7.67;4.77;;;15.10;93.20;;;;;;5116538;28;20250;-81
2023/01/02 12:31:14;;;;;;;3.50;2.80;;;14.90;93.00;;;;;;5117322;28;20214;-82
2023/01/02 12:33:44;;;;;;;6.20;1.60;;;14.80;92.80;;;;;;5112848;28;20172;-81
2023/01/02 12:36:29;;;;;;;3.90;2.10;;;14.70;93.10;;;;;;5113704;28;20163;-82
2023/01/02 12:39:10;;;;;;;1.57;1.37;;;14.60;93.20;;;;;;5118904;28;20192;-81
2023/01/02 12:41:54;;;;;;;2.40;1.50;;;14.60;93.50;;;;;;5120152;28;20179;-81
2023/01/02 12:44:32;;;;;;;1.63;1.20;;;14.60;93.20;;;;;;5118375;28;20711;-82
2023/01/02 12:47:12;;;;;;;2.63;1.80;;;14.50;93.60;;;;;;5119644;28;20634;-82
2023/01/02 12:49:56;;;;;;;3.93;2.73;;;14.50;93.90;;;;;;5122473;28;20191;-82
2023/01/02 12:52:59;;;;;;;3.90;2.50;;;14.50;94.20;;;;;;5122334;28;20168;-82
2023/01/02 12:55:49;;;;;;;8.40;5.00;;;14.40;94.90;;;;;;5123981;28;20160;-82
2023/01/02 12:58:36;;;;;;;2.13;1.17;;;14.40;96.10;;;;;;5123684;28;20171;-82
2023/01/02 13:01:04;;;;;;;1.30;1.10;;;14.30;93.90;;;;;;5123895;28;20203;-82
2023/01/02 13:03:43;;;;;;;2.00;1.10;;;14.20;94.10;;;;;;5123666;28;20223;-81
2023/01/02 13:06:27;;;;;;;2.10;1.40;;;14.10;94.50;;;;;;5123222;28;20645;-82
2023/01/02 13:09:05;;;;;;;2.77;1.27;;;14.10;95.10;;;;;;5124441;28;20251;-81
2023/01/02 13:11:45;;;;;;;5.27;2.80;;;14.10;94.60;;;;;;5123958;28;20171;-81
2023/01/02 13:14:21;;;;;;;4.00;1.80;;;14.10;94.30;;;;;;5123431;28;20163;-82
2023/01/02 13:16:58;;;;;;;1.30;1.10;;;14.10;94.90;;;;;;5134987;28;20208;-81
2023/01/02 13:19:31;;;;;;;2.10;1.07;;;14.20;94.10;;;;;;5139556;28;20274;-82
2023/01/02 13:22:10;;;;;;;2.73;1.23;;;14.30;94.20;;;;;;5137849;28;20166;-82
2023/01/02 13:24:37;;;;;;;4.60;1.40;;;14.30;93.60;;;;;;5139175;28;20156;-82
2023/01/02 13:27:03;;;;;;;2.63;1.40;;;14.20;93.00;;;;;;5134972;28;20176;-81
2023/01/02 13:29:40;;;;;;;2.43;1.20;;;14.20;93.30;;;;;;5120200;28;20219;-80
2023/01/02 13:32:08;;;;;;;4.37;1.20;;;14.20;93.40;;;;;;5122076;28;20242;-81
2023/01/02 13:34:36;;;;;;;2.67;1.40;;;14.20;93.00;;;;;;5121085;28;20512;-81
2023/01/02 13:37:15;;;;;;;4.60;1.33;;;14.20;93.10;;;;;;5120335;28;20551;-81
2023/01/02 13:39:42;;;;;;;7.13;1.00;;;14.10;93.10;;;;;;5121534;28;20199;-80
2023/01/02 13:45:17;;;;;;;3.13;1.07;;;14.00;93.40;;;;;;5122789;28;20174;-80
2023/01/02 13:47:51;;;;;;;5.77;1.30;;;13.90;92.90;;;;;;5120591;28;20170;-81
2023/01/02 13:50:19;;;;;;;3.27;1.13;;;13.90;93.20;;;;;;5120954;28;20199;-81
2023/01/02 13:53:08;;;;;;;3.67;1.57;;;13.90;93.30;;;;;;5122737;28;20172;-81
2023/01/02 13:55:39;;;;;;;2.93;2.07;;;13.80;93.80;;;;;;5123826;28;20205;-80
2023/01/02 13:58:11;;;;;;;4.73;1.60;;;13.80;94.40;;;;;;5122599;28;20254;-81
2023/01/02 14:00:39;;;;;;;4.07;2.00;;;13.80;96.70;;;;;;5120258;28;20627;-81
2023/01/02 14:03:20;;;;;;;7.70;3.23;;;13.70;93.70;;;;;;5122546;28;20191;-82
2023/01/02 14:05:58;;;;;;;5.30;2.70;;;13.70;93.90;;;;;;5122116;28;20172;-81
2023/01/02 14:08:36;;;;;;;8.90;2.43;;;13.70;94.40;;;;;;5121748;28;20167;-81
2023/01/02 14:11:08;;;;;;;5.83;2.13;;;13.60;95.70;;;;;;5123408;28;20156;-81
2023/01/02 14:13:41;;;;;;;5.60;3.03;;;13.60;94.60;;;;;;5121449;28;20523;-81
2023/01/02 14:16:25;;;;;;;31.03;20.03;;;13.50;94.80;;;;;;5121905;28;20167;-82
2023/01/02 14:19:13;;;;;;;13.23;8.33;;;13.40;94.20;;;;;;5104560;28;20190;-82
2023/01/02 14:21:44;;;;;;;7.67;4.37;;;13.30;94.20;;;;;;5121477;28;20276;-81
2023/01/02 14:24:12;;;;;;;5.77;2.70;;;13.20;94.30;;;;;;5122667;28;20175;-82
2023/01/02 14:26:41;;;;;;;3.10;1.93;;;13.20;94.50;;;;;;5121376;28;20718;-82
2023/01/02 14:29:16;;;;;;;4.83;2.43;;;13.10;94.80;;;;;;5123017;28;20187;-81
2023/01/02 14:31:42;;;;;;;8.47;3.50;;;13.00;94.90;;;;;;5122730;28;20167;-81
2023/01/02 14:34:11;;;;;;;3.70;2.17;;;12.90;95.00;;;;;;5120318;28;20637;-81
2023/01/02 14:36:45;;;;;;;3.87;2.27;;;12.80;95.30;;;;;;5121109;28;20183;-81
2023/01/02 14:39:29;;;;;;;6.60;4.13;;;12.80;95.60;;;;;;5121485;28;20198;-81
2023/01/02 14:44:55;;;;;;;2.67;1.53;;;12.70;95.60;;;;;;5124171;28;20187;-80
2023/01/02 14:47:35;;;;;;;6.37;2.47;;;12.60;95.50;;;;;;5124335;28;20196;-83
2023/01/02 14:50:04;;;;;;;5.10;2.60;;;12.60;96.30;;;;;;5123231;28;20260;-83
2023/01/02 14:52:36;;;;;;;7.07;2.50;;;12.50;96.50;;;;;;5126770;28;20174;-83
2023/01/02 14:55:13;;;;;;;5.57;1.83;;;12.40;96.80;;;;;;5119384;28;20234;-81
2023/01/02 14:57:43;;;;;;;5.60;1.60;;;12.30;96.70;;;;;;5120482;28;20266;-82
2023/01/02 15:00:32;;;;;;;3.97;1.93;;;12.20;96.70;;;;;;5119788;28;20206;-81
2023/01/02 15:03:36;;;;;;;5.57;2.30;;;12.10;97.20;;;;;;5121683;28;20171;-80
2023/01/02 15:06:15;;;;;;;4.90;1.97;;;12.00;97.50;;;;;;5089001;28;20175;-81
2023/01/02 15:08:47;;;;;;;6.87;2.30;;;11.90;97.60;;;;;;5117797;28;20255;-81
2023/01/02 15:14:04;;;;;;;3.43;1.97;;;11.80;97.90;;;;;;5120240;28;20552;-81
2023/01/02 15:16:30;;;;;;;6.53;2.03;;;11.70;98.30;;;;;;5117958;28;20203;-80
2023/01/02 15:18:58;;;;;;;10.30;4.57;;;11.60;98.30;;;;;;5119931;28;20202;-80
2023/01/02 15:21:28;;;;;;;7.80;4.40;;;11.60;98.30;;;;;;5118820;28;20199;-80
2023/01/02 15:23:57;;;;;;;7.97;4.17;;;11.50;98.60;;;;;;5115803;28;20179;-80
2023/01/02 15:26:32;;;;;;;7.93;4.30;;;11.40;98.60;;;;;;5115175;28;20254;-81
2023/01/02 15:29:00;;;;;;;10.10;4.33;;;11.40;98.70;;;;;;5117627;28;20190;-80
2023/01/02 15:31:27;;;;;;;7.70;3.30;;;11.30;98.70;;;;;;5119971;28;20168;-81
2023/01/02 15:33:55;;;;;;;6.47;3.17;;;11.30;99.20;;;;;;5119006;28;20194;-81
2023/01/02 15:36:41;;;;;;;7.10;3.97;;;11.20;98.70;;;;;;5120610;28;20590;-79
2023/01/02 15:39:16;;;;;;;6.90;2.80;;;11.20;98.80;;;;;;5120740;27;20206;-80
2023/01/02 15:41:49;;;;;;;6.67;2.90;;;11.10;99.10;;;;;;5118156;28;20647;-80
2023/01/02 15:47:08;;;;;;;10.27;4.20;;;11.10;99.30;;;;;;5119419;28;20544;-80
2023/01/02 15:49:41;;;;;;;10.27;4.00;;;11.00;99.50;;;;;;5120580;28;20191;-81
2023/01/02 15:52:29;;;;;;;11.27;5.53;;;11.00;99.30;;;;;;5120051;28;20171;-80
2023/01/02 15:54:56;;;;;;;14.27;7.07;;;10.90;99.20;;;;;;5118306;28;20266;-81
2023/01/02 15:57:27;;;;;;;12.40;6.50;;;10.90;99.20;;;;;;5119514;28;20210;-81
2023/01/02 15:59:54;;;;;;;15.53;9.80;;;10.80;99.30;;;;;;5118846;28;20244;-81
2023/01/02 16:02:43;;;;;;;16.23;10.87;;;10.80;99.70;;;;;;5121227;28;20170;-82
2023/01/02 16:05:15;;;;;;;11.63;6.30;;;10.70;99.30;;;;;;5120528;28;20166;-81
2023/01/02 16:07:47;;;;;;;10.43;6.00;;;10.70;99.40;;;;;;5129096;28;20171;-80
2023/01/02 16:10:22;;;;;;;15.67;7.03;;;10.60;99.60;;;;;;5117395;28;20226;-80
2023/01/02 16:12:56;;;;;;;82.23;51.67;;;10.60;99.90;;;;;;5117153;28;20175;-81
2023/01/02 16:15:30;;;;;;;33.33;19.07;;;10.50;99.90;;;;;;5117301;28;20166;-80
2023/01/02 16:17:56;;;;;;;12.53;7.57;;;10.40;99.90;;;;;;5118747;28;20168;-80
2023/01/02 16:20:23;;;;;;;10.10;6.97;;;10.40;99.90;;;;;;5117440;28;20203;-81
2023/01/02 16:23:00;;;;;;;10.40;5.87;;;10.30;99.90;;;;;;5122144;28;20242;-81
2023/01/02 16:25:41;;;;;;;12.37;6.67;;;10.30;99.90;;;;;;5122508;28;20167;-81
2023/01/02 16:28:11;;;;;;;11.37;4.77;;;10.30;99.90;;;;;;5123437;28;20280;-81
2023/01/02 16:30:39;;;;;;;8.63;3.73;;;10.30;99.90;;;;;;5123011;28;20668;-81
2023/01/02 16:33:26;;;;;;;6.60;3.77;;;10.40;99.90;;;;;;5122373;28;20182;-80
2023/01/02 16:36:04;;;;;;;7.80;4.07;;;10.40;99.90;;;;;;5123790;28;20156;-80
2023/01/02 16:38:43;;;;;;;6.40;3.97;;;10.30;99.90;;;;;;5120552;28;20167;-79
2023/01/02 16:41:35;;;;;;;5.40;3.33;;;10.30;99.90;;;;;;5119448;28;20195;-80
